sensor_id;sensor_type;location;lat;lon;timestamp;P1;durP1;ratioP1;P2;durP2;ratioP2
23410;SDS011;11878;51.774;7.220;2023-02-27T00:00:31;2.50;;;1.00;;
23410;SDS011;11878;51.774;7.220;2023-02-27T00:03:33;5.27;;;1.27;;
23410;SDS011;11878;51.774;7.220;2023-02-27T00:06:35;6.17;;;1.70;;
23410;SDS011;11878;51.774;7.220;2023-02-27T00:09:37;4.20;;;1.30;;
23410;SDS011;11878;51.774;7.220;2023-02-27T00:12:40;2.27;;;0.93;;
23410;SDS011;11878;51.774;7.220;2023-02-27T00:15:46;5.03;;;1.10;;
23410;SDS011;11878;51.774;7.220;2023-02-27T00:18:49;3.13;;;1.20;;
23410;SDS011;11878;51.774;7.220;2023-02-27T00:21:51;2.27;;;0.93;;
23410;SDS011;11878;51.774;7.220;2023-02-27T00:24:53;4.20;;;1.80;;
23410;SDS011;11878;51.774;7.220;2023-02-27T00:27:55;1.53;;;1.00;;
23410;SDS011;11878;51.774;7.220;2023-02-27T00:30:57;5.30;;;1.33;;
23410;SDS011;11878;51.774;7.220;2023-02-27T00:33:59;4.10;;;1.40;;
23410;SDS011;11878;51.774;7.220;2023-02-27T00:37:01;3.97;;;1.20;;
23410;SDS011;11878;51.774;7.220;2023-02-27T00:40:03;2.67;;;1.30;;
23410;SDS011;11878;51.774;7.220;2023-02-27T00:43:06;2.47;;;1.40;;
23410;SDS011;11878;51.774;7.220;2023-02-27T00:46:08;4.90;;;1.97;;
23410;SDS011;11878;51.774;7.220;2023-02-27T00:49:10;3.83;;;1.47;;
23410;SDS011;11878;51.774;7.220;2023-02-27T00:52:12;5.80;;;1.33;;
23410;SDS011;11878;51.774;7.220;2023-02-27T00:55:13;3.07;;;1.20;;
23410;SDS011;11878;51.774;7.220;2023-02-27T00:58:16;1.30;;;0.87;;
23410;SDS011;11878;51.774;7.220;2023-02-27T01:01:18;3.57;;;1.33;;
23410;SDS011;11878;51.774;7.220;2023-02-27T01:04:20;3.20;;;1.40;;
23410;SDS011;11878;51.774;7.220;2023-02-27T01:07:22;2.70;;;1.40;;
23410;SDS011;11878;51.774;7.220;2023-02-27T01:10:24;2.50;;;1.00;;
23410;SDS011;11878;51.774;7.220;2023-02-27T01:13:25;4.23;;;1.50;;
23410;SDS011;11878;51.774;7.220;2023-02-27T01:16:27;2.50;;;1.17;;
23410;SDS011;11878;51.774;7.220;2023-02-27T01:19:29;3.70;;;1.27;;
23410;SDS011;11878;51.774;7.220;2023-02-27T01:22:31;1.77;;;1.03;;
23410;SDS011;11878;51.774;7.220;2023-02-27T01:25:33;8.10;;;1.70;;
23410;SDS011;11878;51.774;7.220;2023-02-27T01:28:35;6.13;;;1.10;;
23410;SDS011;11878;51.774;7.220;2023-02-27T01:31:38;1.87;;;0.87;;
23410;SDS011;11878;51.774;7.220;2023-02-27T01:34:40;3.57;;;1.30;;
23410;SDS011;11878;51.774;7.220;2023-02-27T01:37:42;3.50;;;1.37;;
23410;SDS011;11878;51.774;7.220;2023-02-27T01:40:44;5.17;;;1.57;;
23410;SDS011;11878;51.774;7.220;2023-02-27T01:47:05;2.90;;;1.20;;
23410;SDS011;11878;51.774;7.220;2023-02-27T01:50:07;2.80;;;1.40;;
23410;SDS011;11878;51.774;7.220;2023-02-27T01:53:10;2.80;;;1.10;;
23410;SDS011;11878;51.774;7.220;2023-02-27T01:56:15;1.93;;;1.10;;
23410;SDS011;11878;51.774;7.220;2023-02-27T01:59:18;4.23;;;1.40;;
23410;SDS011;11878;51.774;7.220;2023-02-27T02:02:24;5.97;;;1.17;;
23410;SDS011;11878;51.774;7.220;2023-02-27T02:05:29;5.03;;;1.47;;
23410;SDS011;11878;51.774;7.220;2023-02-27T02:08:33;2.87;;;1.23;;
23410;SDS011;11878;51.774;7.220;2023-02-27T02:11:39;3.37;;;1.30;;
23410;SDS011;11878;51.774;7.220;2023-02-27T02:14:42;5.60;;;1.27;;
23410;SDS011;11878;51.774;7.220;2023-02-27T02:31:51;3.07;;;1.47;;
23410;SDS011;11878;51.774;7.220;2023-02-27T02:38:32;3.50;;;1.50;;
23410;SDS011;11878;51.774;7.220;2023-02-27T02:48:17;2.87;;;1.20;;
23410;SDS011;11878;51.774;7.220;2023-02-27T02:51:30;4.30;;;1.40;;
23410;SDS011;11878;51.774;7.220;2023-02-27T02:55:22;2.50;;;1.00;;
23410;SDS011;11878;51.774;7.220;2023-02-27T02:58:13;2.47;;;1.37;;
23410;SDS011;11878;51.774;7.220;2023-02-27T03:01:26;5.40;;;1.43;;
23410;SDS011;11878;51.774;7.220;2023-02-27T03:07:46;2.93;;;1.23;;
23410;SDS011;11878;51.774;7.220;2023-02-27T03:13:57;2.23;;;1.33;;
23410;SDS011;11878;51.774;7.220;2023-02-27T03:17:30;4.00;;;1.20;;
23410;SDS011;11878;51.774;7.220;2023-02-27T03:20:41;2.43;;;1.13;;
23410;SDS011;11878;51.774;7.220;2023-02-27T03:23:48;1.90;;;1.07;;
23410;SDS011;11878;51.774;7.220;2023-02-27T03:26:54;1.43;;;0.87;;
23410;SDS011;11878;51.774;7.220;2023-02-27T03:33:17;3.00;;;0.87;;
23410;SDS011;11878;51.774;7.220;2023-02-27T03:36:46;3.07;;;1.30;;
23410;SDS011;11878;51.774;7.220;2023-02-27T03:39:54;2.80;;;1.13;;
23410;SDS011;11878;51.774;7.220;2023-02-27T03:46:23;7.17;;;1.73;;
23410;SDS011;11878;51.774;7.220;2023-02-27T03:49:28;3.97;;;2.13;;
23410;SDS011;11878;51.774;7.220;2023-02-27T03:52:29;9.60;;;2.27;;
23410;SDS011;11878;51.774;7.220;2023-02-27T03:55:33;3.40;;;1.83;;
23410;SDS011;11878;51.774;7.220;2023-02-27T03:58:39;6.03;;;1.87;;
23410;SDS011;11878;51.774;7.220;2023-02-27T04:01:42;4.77;;;1.80;;
23410;SDS011;11878;51.774;7.220;2023-02-27T04:04:44;5.17;;;1.80;;
23410;SDS011;11878;51.774;7.220;2023-02-27T04:11:38;8.40;;;1.80;;
23410;SDS011;11878;51.774;7.220;2023-02-27T04:28:08;6.57;;;1.77;;
23410;SDS011;11878;51.774;7.220;2023-02-27T04:31:19;6.47;;;1.63;;
23410;SDS011;11878;51.774;7.220;2023-02-27T04:34:30;4.00;;;1.90;;
23410;SDS011;11878;51.774;7.220;2023-02-27T04:40:48;1.97;;;1.20;;
23410;SDS011;11878;51.774;7.220;2023-02-27T04:43:55;3.50;;;1.43;;
23410;SDS011;11878;51.774;7.220;2023-02-27T04:46:58;2.63;;;1.37;;
23410;SDS011;11878;51.774;7.220;2023-02-27T04:50:08;6.00;;;1.50;;
23410;SDS011;11878;51.774;7.220;2023-02-27T04:53:19;2.90;;;1.40;;
23410;SDS011;11878;51.774;7.220;2023-02-27T04:56:40;4.37;;;1.87;;
23410;SDS011;11878;51.774;7.220;2023-02-27T04:59:53;4.17;;;2.03;;
23410;SDS011;11878;51.774;7.220;2023-02-27T05:02:59;7.40;;;1.60;;
23410;SDS011;11878;51.774;7.220;2023-02-27T05:06:17;3.43;;;1.83;;
23410;SDS011;11878;51.774;7.220;2023-02-27T05:09:30;4.13;;;2.00;;
23410;SDS011;11878;51.774;7.220;2023-02-27T05:12:37;3.13;;;1.53;;
23410;SDS011;11878;51.774;7.220;2023-02-27T05:15:47;4.57;;;1.90;;
23410;SDS011;11878;51.774;7.220;2023-02-27T05:18:51;3.13;;;1.67;;
23410;SDS011;11878;51.774;7.220;2023-02-27T05:21:55;3.37;;;1.90;;
23410;SDS011;11878;51.774;7.220;2023-02-27T05:25:22;4.53;;;1.80;;
23410;SDS011;11878;51.774;7.220;2023-02-27T05:28:33;5.83;;;2.13;;
23410;SDS011;11878;51.774;7.220;2023-02-27T05:31:45;8.40;;;2.20;;
23410;SDS011;11878;51.774;7.220;2023-02-27T05:35:00;4.23;;;2.23;;
23410;SDS011;11878;51.774;7.220;2023-02-27T05:38:28;3.73;;;1.53;;
23410;SDS011;11878;51.774;7.220;2023-02-27T05:41:49;4.60;;;2.17;;
23410;SDS011;11878;51.774;7.220;2023-02-27T05:45:08;3.70;;;1.73;;
23410;SDS011;11878;51.774;7.220;2023-02-27T05:48:20;4.60;;;1.77;;
23410;SDS011;11878;51.774;7.220;2023-02-27T05:51:36;5.77;;;1.70;;
23410;SDS011;11878;51.774;7.220;2023-02-27T05:57:53;2.67;;;1.60;;
23410;SDS011;11878;51.774;7.220;2023-02-27T06:01:05;5.63;;;2.07;;
23410;SDS011;11878;51.774;7.220;2023-02-27T06:04:08;7.27;;;2.00;;
23410;SDS011;11878;51.774;7.220;2023-02-27T06:07:11;3.23;;;1.83;;
23410;SDS011;11878;51.774;7.220;2023-02-27T06:10:15;4.90;;;2.00;;
23410;SDS011;11878;51.774;7.220;2023-02-27T06:13:20;6.53;;;1.80;;
23410;SDS011;11878;51.774;7.220;2023-02-27T06:16:22;5.97;;;1.97;;
23410;SDS011;11878;51.774;7.220;2023-02-27T06:19:24;4.43;;;2.30;;
23410;SDS011;11878;51.774;7.220;2023-02-27T06:22:26;7.07;;;2.87;;
23410;SDS011;11878;51.774;7.220;2023-02-27T06:25:27;6.47;;;3.13;;
23410;SDS011;11878;51.774;7.220;2023-02-27T06:28:29;6.73;;;2.53;;
23410;SDS011;11878;51.774;7.220;2023-02-27T06:31:31;6.20;;;1.80;;
23410;SDS011;11878;51.774;7.220;2023-02-27T06:34:33;4.70;;;1.97;;
23410;SDS011;11878;51.774;7.220;2023-02-27T06:37:34;4.27;;;2.30;;
23410;SDS011;11878;51.774;7.220;2023-02-27T06:40:36;6.10;;;2.33;;
23410;SDS011;11878;51.774;7.220;2023-02-27T06:43:38;4.87;;;2.33;;
23410;SDS011;11878;51.774;7.220;2023-02-27T06:46:40;5.43;;;2.33;;
23410;SDS011;11878;51.774;7.220;2023-02-27T06:49:42;5.70;;;2.20;;
23410;SDS011;11878;51.774;7.220;2023-02-27T06:52:44;5.03;;;2.47;;
23410;SDS011;11878;51.774;7.220;2023-02-27T06:55:45;6.00;;;1.80;;
23410;SDS011;11878;51.774;7.220;2023-02-27T06:58:47;4.50;;;2.60;;
23410;SDS011;11878;51.774;7.220;2023-02-27T07:01:49;5.30;;;1.77;;
23410;SDS011;11878;51.774;7.220;2023-02-27T07:04:51;5.07;;;2.13;;
23410;SDS011;11878;51.774;7.220;2023-02-27T07:07:53;4.57;;;2.00;;
23410;SDS011;11878;51.774;7.220;2023-02-27T07:10:58;4.80;;;2.03;;
23410;SDS011;11878;51.774;7.220;2023-02-27T07:14:00;5.30;;;2.60;;
23410;SDS011;11878;51.774;7.220;2023-02-27T07:17:02;3.60;;;2.00;;
23410;SDS011;11878;51.774;7.220;2023-02-27T07:20:05;8.97;;;2.13;;
23410;SDS011;11878;51.774;7.220;2023-02-27T07:23:08;5.47;;;2.67;;
23410;SDS011;11878;51.774;7.220;2023-02-27T07:26:10;4.40;;;2.67;;
23410;SDS011;11878;51.774;7.220;2023-02-27T07:29:12;4.50;;;2.40;;
23410;SDS011;11878;51.774;7.220;2023-02-27T07:32:15;9.70;;;2.17;;
23410;SDS011;11878;51.774;7.220;2023-02-27T07:35:17;5.07;;;2.00;;
23410;SDS011;11878;51.774;7.220;2023-02-27T07:38:19;2.77;;;1.70;;
23410;SDS011;11878;51.774;7.220;2023-02-27T07:41:23;5.23;;;1.93;;
23410;SDS011;11878;51.774;7.220;2023-02-27T07:44:33;3.70;;;2.00;;
23410;SDS011;11878;51.774;7.220;2023-02-27T07:47:35;4.57;;;2.00;;
23410;SDS011;11878;51.774;7.220;2023-02-27T07:50:37;10.80;;;2.90;;
23410;SDS011;11878;51.774;7.220;2023-02-27T07:53:38;8.73;;;2.80;;
23410;SDS011;11878;51.774;7.220;2023-02-27T07:56:40;2.80;;;2.10;;
23410;SDS011;11878;51.774;7.220;2023-02-27T07:59:42;6.10;;;2.33;;
23410;SDS011;11878;51.774;7.220;2023-02-27T08:02:44;9.00;;;2.60;;
23410;SDS011;11878;51.774;7.220;2023-02-27T08:05:46;7.67;;;2.93;;
23410;SDS011;11878;51.774;7.220;2023-02-27T08:08:48;6.40;;;2.57;;
23410;SDS011;11878;51.774;7.220;2023-02-27T08:11:50;5.33;;;3.10;;
23410;SDS011;11878;51.774;7.220;2023-02-27T08:14:52;5.83;;;2.50;;
23410;SDS011;11878;51.774;7.220;2023-02-27T08:17:54;7.27;;;3.23;;
23410;SDS011;11878;51.774;7.220;2023-02-27T08:20:55;4.03;;;2.00;;
23410;SDS011;11878;51.774;7.220;2023-02-27T08:23:57;8.43;;;3.30;;
23410;SDS011;11878;51.774;7.220;2023-02-27T08:26:59;3.80;;;2.20;;
23410;SDS011;11878;51.774;7.220;2023-02-27T08:30:01;7.13;;;2.53;;
23410;SDS011;11878;51.774;7.220;2023-02-27T08:33:03;5.50;;;3.00;;
23410;SDS011;11878;51.774;7.220;2023-02-27T08:36:05;8.20;;;2.30;;
23410;SDS011;11878;51.774;7.220;2023-02-27T08:39:08;4.47;;;2.33;;
23410;SDS011;11878;51.774;7.220;2023-02-27T08:42:10;7.47;;;2.90;;
23410;SDS011;11878;51.774;7.220;2023-02-27T08:45:12;5.33;;;2.27;;
23410;SDS011;11878;51.774;7.220;2023-02-27T08:48:14;8.63;;;2.70;;
23410;SDS011;11878;51.774;7.220;2023-02-27T08:51:17;6.77;;;2.80;;
23410;SDS011;11878;51.774;7.220;2023-02-27T08:54:19;5.03;;;2.10;;
23410;SDS011;11878;51.774;7.220;2023-02-27T08:57:20;4.10;;;1.83;;
23410;SDS011;11878;51.774;7.220;2023-02-27T09:00:22;4.37;;;1.97;;
23410;SDS011;11878;51.774;7.220;2023-02-27T09:03:25;3.97;;;2.10;;
23410;SDS011;11878;51.774;7.220;2023-02-27T09:06:29;8.83;;;2.20;;
23410;SDS011;11878;51.774;7.220;2023-02-27T09:09:32;6.07;;;2.13;;
23410;SDS011;11878;51.774;7.220;2023-02-27T09:12:34;4.70;;;1.97;;
23410;SDS011;11878;51.774;7.220;2023-02-27T09:15:35;3.20;;;1.20;;
23410;SDS011;11878;51.774;7.220;2023-02-27T09:18:38;4.80;;;1.90;;
23410;SDS011;11878;51.774;7.220;2023-02-27T09:21:40;3.67;;;1.20;;
23410;SDS011;11878;51.774;7.220;2023-02-27T09:24:42;2.67;;;1.10;;
23410;SDS011;11878;51.774;7.220;2023-02-27T09:27:44;4.20;;;1.40;;
23410;SDS011;11878;51.774;7.220;2023-02-27T09:30:46;5.03;;;1.33;;
23410;SDS011;11878;51.774;7.220;2023-02-27T09:33:48;4.40;;;1.07;;
23410;SDS011;11878;51.774;7.220;2023-02-27T09:36:50;3.63;;;0.83;;
23410;SDS011;11878;51.774;7.220;2023-02-27T09:39:52;2.23;;;1.07;;
23410;SDS011;11878;51.774;7.220;2023-02-27T09:42:55;2.57;;;1.17;;
23410;SDS011;11878;51.774;7.220;2023-02-27T09:46:01;11.40;;;1.77;;
23410;SDS011;11878;51.774;7.220;2023-02-27T09:49:03;3.60;;;1.00;;
23410;SDS011;11878;51.774;7.220;2023-02-27T09:52:05;4.40;;;0.83;;
23410;SDS011;11878;51.774;7.220;2023-02-27T09:55:12;1.37;;;0.80;;
23410;SDS011;11878;51.774;7.220;2023-02-27T10:01:55;3.90;;;1.17;;
23410;SDS011;11878;51.774;7.220;2023-02-27T10:05:04;4.07;;;1.03;;
23410;SDS011;11878;51.774;7.220;2023-02-27T10:09:01;1.87;;;0.90;;
23410;SDS011;11878;51.774;7.220;2023-02-27T10:15:17;3.13;;;1.40;;
23410;SDS011;11878;51.774;7.220;2023-02-27T10:18:25;6.03;;;1.07;;
23410;SDS011;11878;51.774;7.220;2023-02-27T10:21:36;1.43;;;0.90;;
23410;SDS011;11878;51.774;7.220;2023-02-27T10:24:46;4.00;;;1.00;;
23410;SDS011;11878;51.774;7.220;2023-02-27T10:28:04;1.80;;;1.17;;
23410;SDS011;11878;51.774;7.220;2023-02-27T10:31:14;6.33;;;1.10;;
23410;SDS011;11878;51.774;7.220;2023-02-27T10:34:21;2.87;;;1.30;;
23410;SDS011;11878;51.774;7.220;2023-02-27T10:37:24;3.77;;;1.10;;
23410;SDS011;11878;51.774;7.220;2023-02-27T10:40:28;6.47;;;1.27;;
23410;SDS011;11878;51.774;7.220;2023-02-27T10:43:30;3.03;;;0.73;;
23410;SDS011;11878;51.774;7.220;2023-02-27T10:46:33;6.10;;;1.40;;
23410;SDS011;11878;51.774;7.220;2023-02-27T10:49:38;4.10;;;1.30;;
23410;SDS011;11878;51.774;7.220;2023-02-27T10:52:49;1.80;;;1.07;;
23410;SDS011;11878;51.774;7.220;2023-02-27T10:55:59;2.50;;;1.10;;
23410;SDS011;11878;51.774;7.220;2023-02-27T10:59:04;5.03;;;1.20;;
23410;SDS011;11878;51.774;7.220;2023-02-27T11:02:19;2.40;;;1.00;;
23410;SDS011;11878;51.774;7.220;2023-02-27T11:05:42;7.47;;;1.70;;
23410;SDS011;11878;51.774;7.220;2023-02-27T11:09:12;4.13;;;1.20;;
23410;SDS011;11878;51.774;7.220;2023-02-27T11:12:25;4.13;;;1.03;;
23410;SDS011;11878;51.774;7.220;2023-02-27T11:15:33;3.37;;;1.07;;
23410;SDS011;11878;51.774;7.220;2023-02-27T11:18:37;7.07;;;1.53;;
23410;SDS011;11878;51.774;7.220;2023-02-27T11:21:59;3.13;;;1.30;;
23410;SDS011;11878;51.774;7.220;2023-02-27T11:25:24;4.17;;;1.50;;
23410;SDS011;11878;51.774;7.220;2023-02-27T11:28:27;4.53;;;1.43;;
23410;SDS011;11878;51.774;7.220;2023-02-27T11:31:30;5.23;;;1.17;;
23410;SDS011;11878;51.774;7.220;2023-02-27T11:34:38;4.27;;;1.10;;
23410;SDS011;11878;51.774;7.220;2023-02-27T11:37:48;4.07;;;1.30;;
23410;SDS011;11878;51.774;7.220;2023-02-27T11:41:02;5.47;;;1.00;;
23410;SDS011;11878;51.774;7.220;2023-02-27T11:44:05;7.47;;;1.20;;
23410;SDS011;11878;51.774;7.220;2023-02-27T11:47:40;2.47;;;1.00;;
23410;SDS011;11878;51.774;7.220;2023-02-27T11:57:26;3.83;;;1.20;;
23410;SDS011;11878;51.774;7.220;2023-02-27T12:00:34;4.23;;;1.00;;
23410;SDS011;11878;51.774;7.220;2023-02-27T12:04:05;4.67;;;1.40;;
23410;SDS011;11878;51.774;7.220;2023-02-27T12:08:02;7.37;;;1.20;;
23410;SDS011;11878;51.774;7.220;2023-02-27T12:11:23;5.97;;;1.30;;
23410;SDS011;11878;51.774;7.220;2023-02-27T12:14:44;7.53;;;1.40;;
23410;SDS011;11878;51.774;7.220;2023-02-27T12:21:20;3.83;;;1.30;;
23410;SDS011;11878;51.774;7.220;2023-02-27T12:24:40;5.53;;;1.30;;
23410;SDS011;11878;51.774;7.220;2023-02-27T12:28:13;3.90;;;1.47;;
23410;SDS011;11878;51.774;7.220;2023-02-27T12:37:49;4.50;;;1.47;;
23410;SDS011;11878;51.774;7.220;2023-02-27T12:44:33;4.13;;;1.10;;
23410;SDS011;11878;51.774;7.220;2023-02-27T12:58:20;3.73;;;1.20;;
23410;SDS011;11878;51.774;7.220;2023-02-27T13:04:47;3.57;;;1.17;;
23410;SDS011;11878;51.774;7.220;2023-02-27T13:14:45;3.80;;;1.00;;
23410;SDS011;11878;51.774;7.220;2023-02-27T13:17:52;3.77;;;1.00;;
23410;SDS011;11878;51.774;7.220;2023-02-27T13:20:59;3.43;;;1.10;;
23410;SDS011;11878;51.774;7.220;2023-02-27T13:24:17;4.70;;;1.40;;
23410;SDS011;11878;51.774;7.220;2023-02-27T13:27:40;2.77;;;1.40;;
23410;SDS011;11878;51.774;7.220;2023-02-27T13:41:41;4.53;;;1.60;;
23410;SDS011;11878;51.774;7.220;2023-02-27T13:44:43;2.63;;;1.47;;
23410;SDS011;11878;51.774;7.220;2023-02-27T13:47:48;4.03;;;1.50;;
23410;SDS011;11878;51.774;7.220;2023-02-27T13:50:50;7.10;;;1.77;;
23410;SDS011;11878;51.774;7.220;2023-02-27T13:57:18;3.80;;;1.50;;
23410;SDS011;11878;51.774;7.220;2023-02-27T14:00:26;2.60;;;1.57;;
23410;SDS011;11878;51.774;7.220;2023-02-27T14:03:30;3.97;;;1.57;;
23410;SDS011;11878;51.774;7.220;2023-02-27T14:06:32;5.60;;;1.27;;
23410;SDS011;11878;51.774;7.220;2023-02-27T14:09:46;3.40;;;1.30;;
23410;SDS011;11878;51.774;7.220;2023-02-27T14:12:50;2.77;;;1.03;;
23410;SDS011;11878;51.774;7.220;2023-02-27T14:15:54;3.53;;;1.10;;
23410;SDS011;11878;51.774;7.220;2023-02-27T14:18:58;2.10;;;1.00;;
23410;SDS011;11878;51.774;7.220;2023-02-27T14:31:50;2.13;;;1.17;;
23410;SDS011;11878;51.774;7.220;2023-02-27T14:34:53;4.97;;;1.10;;
23410;SDS011;11878;51.774;7.220;2023-02-27T14:37:55;2.40;;;1.07;;
23410;SDS011;11878;51.774;7.220;2023-02-27T14:41:13;5.37;;;1.60;;
23410;SDS011;11878;51.774;7.220;2023-02-27T14:44:37;4.20;;;0.87;;
23410;SDS011;11878;51.774;7.220;2023-02-27T14:47:43;1.77;;;0.60;;
23410;SDS011;11878;51.774;7.220;2023-02-27T14:50:46;2.67;;;0.90;;
23410;SDS011;11878;51.774;7.220;2023-02-27T14:57:23;2.40;;;0.93;;
23410;SDS011;11878;51.774;7.220;2023-02-27T15:03:46;4.77;;;1.37;;
23410;SDS011;11878;51.774;7.220;2023-02-27T15:06:49;4.00;;;1.40;;
23410;SDS011;11878;51.774;7.220;2023-02-27T15:09:54;3.60;;;0.90;;
23410;SDS011;11878;51.774;7.220;2023-02-27T15:12:58;1.27;;;0.80;;
23410;SDS011;11878;51.774;7.220;2023-02-27T15:16:25;3.57;;;1.00;;
23410;SDS011;11878;51.774;7.220;2023-02-27T15:19:37;5.00;;;1.10;;
23410;SDS011;11878;51.774;7.220;2023-02-27T15:22:47;3.90;;;1.00;;
23410;SDS011;11878;51.774;7.220;2023-02-27T15:25:49;14.13;;;1.17;;
23410;SDS011;11878;51.774;7.220;2023-02-27T15:28:56;3.00;;;1.17;;
23410;SDS011;11878;51.774;7.220;2023-02-27T15:32:00;6.37;;;1.20;;
23410;SDS011;11878;51.774;7.220;2023-02-27T15:35:22;9.40;;;3.43;;
23410;SDS011;11878;51.774;7.220;2023-02-27T15:38:35;3.60;;;1.70;;
23410;SDS011;11878;51.774;7.220;2023-02-27T15:41:39;3.17;;;1.10;;
23410;SDS011;11878;51.774;7.220;2023-02-27T15:44:43;3.87;;;1.17;;
23410;SDS011;11878;51.774;7.220;2023-02-27T15:47:46;2.33;;;0.97;;
23410;SDS011;11878;51.774;7.220;2023-02-27T15:50:53;3.57;;;0.90;;
23410;SDS011;11878;51.774;7.220;2023-02-27T15:53:57;4.53;;;1.00;;
23410;SDS011;11878;51.774;7.220;2023-02-27T15:57:04;6.03;;;1.20;;
23410;SDS011;11878;51.774;7.220;2023-02-27T16:00:07;5.90;;;1.37;;
23410;SDS011;11878;51.774;7.220;2023-02-27T16:03:16;2.10;;;1.10;;
23410;SDS011;11878;51.774;7.220;2023-02-27T16:06:34;5.30;;;1.40;;
23410;SDS011;11878;51.774;7.220;2023-02-27T16:09:39;4.90;;;1.33;;
23410;SDS011;11878;51.774;7.220;2023-02-27T16:12:41;2.87;;;1.20;;
23410;SDS011;11878;51.774;7.220;2023-02-27T16:15:44;1.40;;;0.87;;
23410;SDS011;11878;51.774;7.220;2023-02-27T16:19:25;7.67;;;1.53;;
23410;SDS011;11878;51.774;7.220;2023-02-27T16:22:30;2.20;;;1.30;;
23410;SDS011;11878;51.774;7.220;2023-02-27T16:25:32;5.37;;;1.43;;
23410;SDS011;11878;51.774;7.220;2023-02-27T16:28:55;2.10;;;1.20;;
23410;SDS011;11878;51.774;7.220;2023-02-27T16:32:13;4.17;;;1.07;;
23410;SDS011;11878;51.774;7.220;2023-02-27T16:35:25;6.33;;;1.20;;
23410;SDS011;11878;51.774;7.220;2023-02-27T16:38:28;5.13;;;2.33;;
23410;SDS011;11878;51.774;7.220;2023-02-27T16:41:30;4.40;;;2.00;;
23410;SDS011;11878;51.774;7.220;2023-02-27T16:44:32;4.63;;;1.50;;
23410;SDS011;11878;51.774;7.220;2023-02-27T16:47:35;5.87;;;1.90;;
23410;SDS011;11878;51.774;7.220;2023-02-27T16:50:38;6.80;;;1.40;;
23410;SDS011;11878;51.774;7.220;2023-02-27T16:53:42;4.00;;;1.27;;
23410;SDS011;11878;51.774;7.220;2023-02-27T16:56:46;4.10;;;1.50;;
23410;SDS011;11878;51.774;7.220;2023-02-27T16:59:49;4.97;;;1.80;;
23410;SDS011;11878;51.774;7.220;2023-02-27T17:02:51;4.27;;;1.60;;
23410;SDS011;11878;51.774;7.220;2023-02-27T17:05:53;4.37;;;2.10;;
23410;SDS011;11878;51.774;7.220;2023-02-27T17:08:55;3.23;;;2.10;;
23410;SDS011;11878;51.774;7.220;2023-02-27T17:11:58;3.70;;;1.63;;
23410;SDS011;11878;51.774;7.220;2023-02-27T17:14:59;2.67;;;2.00;;
23410;SDS011;11878;51.774;7.220;2023-02-27T17:18:01;4.20;;;1.97;;
23410;SDS011;11878;51.774;7.220;2023-02-27T17:21:03;5.70;;;1.40;;
23410;SDS011;11878;51.774;7.220;2023-02-27T17:24:05;2.43;;;1.60;;
23410;SDS011;11878;51.774;7.220;2023-02-27T17:27:08;4.63;;;1.90;;
23410;SDS011;11878;51.774;7.220;2023-02-27T17:30:10;4.33;;;2.07;;
23410;SDS011;11878;51.774;7.220;2023-02-27T17:33:13;5.87;;;2.00;;
23410;SDS011;11878;51.774;7.220;2023-02-27T17:36:15;4.10;;;2.43;;
23410;SDS011;11878;51.774;7.220;2023-02-27T17:39:18;3.63;;;1.73;;
23410;SDS011;11878;51.774;7.220;2023-02-27T17:42:20;4.03;;;1.60;;
23410;SDS011;11878;51.774;7.220;2023-02-27T17:45:23;4.33;;;1.50;;
23410;SDS011;11878;51.774;7.220;2023-02-27T17:48:27;2.60;;;1.27;;
23410;SDS011;11878;51.774;7.220;2023-02-27T17:51:29;4.00;;;1.10;;
23410;SDS011;11878;51.774;7.220;2023-02-27T17:54:32;1.93;;;1.20;;
23410;SDS011;11878;51.774;7.220;2023-02-27T17:57:35;3.07;;;1.43;;
23410;SDS011;11878;51.774;7.220;2023-02-27T18:00:37;5.47;;;1.80;;
23410;SDS011;11878;51.774;7.220;2023-02-27T18:03:39;3.27;;;1.37;;
23410;SDS011;11878;51.774;7.220;2023-02-27T18:06:41;6.30;;;1.60;;
23410;SDS011;11878;51.774;7.220;2023-02-27T18:09:44;2.37;;;1.33;;
23410;SDS011;11878;51.774;7.220;2023-02-27T18:12:46;3.03;;;2.03;;
23410;SDS011;11878;51.774;7.220;2023-02-27T18:15:48;4.10;;;1.50;;
23410;SDS011;11878;51.774;7.220;2023-02-27T18:18:50;8.43;;;1.80;;
23410;SDS011;11878;51.774;7.220;2023-02-27T18:21:52;6.70;;;2.20;;
23410;SDS011;11878;51.774;7.220;2023-02-27T18:24:54;3.43;;;1.70;;
23410;SDS011;11878;51.774;7.220;2023-02-27T18:27:56;3.07;;;1.73;;
23410;SDS011;11878;51.774;7.220;2023-02-27T18:30:58;4.63;;;1.73;;
23410;SDS011;11878;51.774;7.220;2023-02-27T18:34:00;6.63;;;2.03;;
23410;SDS011;11878;51.774;7.220;2023-02-27T18:37:02;3.80;;;2.00;;
23410;SDS011;11878;51.774;7.220;2023-02-27T18:40:04;6.80;;;2.07;;
23410;SDS011;11878;51.774;7.220;2023-02-27T18:43:10;2.30;;;1.10;;
23410;SDS011;11878;51.774;7.220;2023-02-27T18:46:14;3.40;;;1.60;;
23410;SDS011;11878;51.774;7.220;2023-02-27T19:00:53;6.00;;;1.77;;
23410;SDS011;11878;51.774;7.220;2023-02-27T19:03:55;4.30;;;2.00;;
23410;SDS011;11878;51.774;7.220;2023-02-27T19:07:03;5.00;;;2.27;;
23410;SDS011;11878;51.774;7.220;2023-02-27T19:10:05;3.30;;;2.00;;
23410;SDS011;11878;51.774;7.220;2023-02-27T19:13:09;4.47;;;2.00;;
23410;SDS011;11878;51.774;7.220;2023-02-27T19:16:12;4.27;;;2.20;;
23410;SDS011;11878;51.774;7.220;2023-02-27T19:19:13;7.33;;;3.33;;
23410;SDS011;11878;51.774;7.220;2023-02-27T19:22:15;3.40;;;2.37;;
23410;SDS011;11878;51.774;7.220;2023-02-27T19:25:17;4.17;;;2.80;;
23410;SDS011;11878;51.774;7.220;2023-02-27T19:28:19;4.67;;;2.63;;
23410;SDS011;11878;51.774;7.220;2023-02-27T19:31:22;4.90;;;2.73;;
23410;SDS011;11878;51.774;7.220;2023-02-27T19:34:24;7.17;;;3.93;;
23410;SDS011;11878;51.774;7.220;2023-02-27T19:37:26;7.70;;;3.47;;
23410;SDS011;11878;51.774;7.220;2023-02-27T19:40:28;6.47;;;3.07;;
23410;SDS011;11878;51.774;7.220;2023-02-27T19:43:30;4.07;;;2.80;;
23410;SDS011;11878;51.774;7.220;2023-02-27T19:46:32;4.20;;;2.40;;
23410;SDS011;11878;51.774;7.220;2023-02-27T19:49:35;7.90;;;2.43;;
23410;SDS011;11878;51.774;7.220;2023-02-27T19:52:37;5.03;;;2.10;;
23410;SDS011;11878;51.774;7.220;2023-02-27T19:55:39;6.73;;;2.13;;
23410;SDS011;11878;51.774;7.220;2023-02-27T19:58:41;3.17;;;1.97;;
23410;SDS011;11878;51.774;7.220;2023-02-27T20:01:43;2.87;;;1.67;;
23410;SDS011;11878;51.774;7.220;2023-02-27T20:04:44;6.33;;;2.37;;
23410;SDS011;11878;51.774;7.220;2023-02-27T20:07:46;6.07;;;2.20;;
23410;SDS011;11878;51.774;7.220;2023-02-27T20:10:55;6.07;;;2.27;;
23410;SDS011;11878;51.774;7.220;2023-02-27T20:13:58;7.83;;;2.67;;
23410;SDS011;11878;51.774;7.220;2023-02-27T20:17:00;8.50;;;2.60;;
23410;SDS011;11878;51.774;7.220;2023-02-27T20:20:02;3.63;;;1.90;;
23410;SDS011;11878;51.774;7.220;2023-02-27T20:37:29;8.10;;;3.07;;
23410;SDS011;11878;51.774;7.220;2023-02-27T20:40:35;7.97;;;3.37;;
23410;SDS011;11878;51.774;7.220;2023-02-27T20:43:37;7.83;;;3.50;;
23410;SDS011;11878;51.774;7.220;2023-02-27T20:46:40;7.77;;;3.37;;
23410;SDS011;11878;51.774;7.220;2023-02-27T20:49:42;6.53;;;2.90;;
23410;SDS011;11878;51.774;7.220;2023-02-27T20:52:44;8.60;;;3.47;;
23410;SDS011;11878;51.774;7.220;2023-02-27T20:55:47;7.10;;;3.03;;
23410;SDS011;11878;51.774;7.220;2023-02-27T20:58:49;7.13;;;3.33;;
23410;SDS011;11878;51.774;7.220;2023-02-27T21:01:51;8.30;;;3.47;;
23410;SDS011;11878;51.774;7.220;2023-02-27T21:04:54;7.23;;;4.13;;
23410;SDS011;11878;51.774;7.220;2023-02-27T21:07:57;14.70;;;5.97;;
23410;SDS011;11878;51.774;7.220;2023-02-27T21:11:04;10.70;;;4.97;;
23410;SDS011;11878;51.774;7.220;2023-02-27T21:14:08;8.43;;;4.47;;
23410;SDS011;11878;51.774;7.220;2023-02-27T21:17:11;12.07;;;5.07;;
23410;SDS011;11878;51.774;7.220;2023-02-27T21:20:13;11.03;;;5.53;;
23410;SDS011;11878;51.774;7.220;2023-02-27T21:23:15;8.53;;;4.90;;
23410;SDS011;11878;51.774;7.220;2023-02-27T21:26:18;8.13;;;4.57;;
23410;SDS011;11878;51.774;7.220;2023-02-27T21:29:32;9.30;;;4.97;;